NCAR-RAP Real-Time Weather Data

Output produced by METARs form (06 May 2021  16:06 UTC)
found at http://weather.rap.ucar.edu/surface/
 
KHUF 061553Z 17006KT 10SM FEW050 BKN065 OVC090 15/05 A3011 RMK AO2 RAE23 SLP197 P0000 T01500050
KHUF 061453Z 19009KT 10SM -RA BKN060 OVC075 13/04 A3013 RMK AO2 RAB31 SLP202 P0000 60000 T01330044 58006
KHUF 061353Z 17010KT 10SM BKN095 13/03 A3014 RMK AO2 SLP207 T01330028
KHUF 061253Z 17005KT 10SM CLR 12/04 A3014 RMK AO2 SLP208 T01170039
KHUF 061153Z 00000KT 10SM FEW120 09/04 A3015 RMK AO2 SLP208 T00890044 10089 20050 53001
KHUF 061053Z 00000KT 10SM CLR 07/03 A3014 RMK AO2 SLP207 T00720028
KHUF 060953Z 00000KT 10SM CLR 07/03 A3013 RMK AO2 SLP205 T00670028
KHUF 060853Z 13003KT 10SM CLR 05/03 A3014 RMK AO2 SLP208 T00500033 58003
KHUF 060753Z 00000KT 10SM CLR 06/04 A3015 RMK AO2 SLP209 T00610044
KHUF 060653Z 00000KT 10SM CLR 06/05 A3015 RMK AO2 SLP211 T00610050
KHUF 060553Z 05003KT 10SM CLR 06/04 A3015 RMK AO2 SLP211 T00560039 10161 20056 50000
KHUF 060453Z 00000KT 10SM CLR 08/04 A3016 RMK AO2 SLP214 T00780044 401830067
KHUF 060353Z 00000KT 10SM CLR 07/04 A3016 RMK AO2 SLP215 T00720044
KHUF 060253Z 00000KT 10SM CLR 10/04 A3015 RMK AO2 SLP211 T01000044 52008
KHUF 060153Z 00000KT 10SM CLR 11/04 A3015 RMK AO2 SLP209 T01110044
KHUF 060053Z 02003KT 10SM CLR 13/03 A3013 RMK AO2 SLP204 T01330033